Time;durP1;ratioP1;P1;durP2;ratioP2;P2;SDS_P1;SDS_P2;PMS_P1;PMS_P2;Temp;Humidity;BMP_temperature;BMP_pressure;BME280_temperature;BME280_humidity;BME280_pressure;Samples;Min_cycle;Max_cycle;Signal;HPM_P1;HPM_P2
2023/08/01 00:00:07;;;;;;;18.15;7.90;;;15.90;99.90;;;;;;5036904;28;20047;-67
2023/08/01 00:02:33;;;;;;;19.75;8.18;;;15.90;99.90;;;;;;5038299;28;20417;-66
2023/08/01 00:04:58;;;;;;;19.52;8.20;;;16.10;99.90;;;;;;5041148;28;20148;-66
2023/08/01 00:07:28;;;;;;;26.52;9.02;;;15.30;99.90;;;;;;5038040;28;20037;-66
2023/08/01 00:09:54;;;;;;;16.23;8.55;;;15.80;99.90;;;;;;5051065;28;20052;-66
2023/08/01 00:12:19;;;;;;;23.58;9.18;;;15.90;99.90;;;;;;5031164;28;20044;-66
2023/08/01 00:14:45;;;;;;;16.63;8.57;;;15.20;99.90;;;;;;5028028;28;20116;-67
2023/08/01 00:17:11;;;;;;;22.25;8.93;;;15.20;99.90;;;;;;5047271;28;20041;-66
2023/08/01 00:19:37;;;;;;;20.48;8.55;;;15.80;99.90;;;;;;5027306;28;20040;-66
2023/08/01 00:22:02;;;;;;;21.98;8.80;;;15.50;99.90;;;;;;5029832;28;20041;-66
2023/08/01 00:24:28;;;;;;;21.45;7.95;;;15.20;99.90;;;;;;5032806;28;20038;-66
2023/08/01 00:26:55;;;;;;;21.80;8.15;;;15.70;99.90;;;;;;5025603;28;20736;-66
2023/08/01 00:29:21;;;;;;;17.60;6.90;;;15.50;99.90;;;;;;5055461;28;20060;-66
2023/08/01 00:31:47;;;;;;;17.83;6.95;;;15.90;99.90;;;;;;5047932;28;20053;-66
2023/08/01 00:34:12;;;;;;;15.27;6.88;;;15.70;99.90;;;;;;5051026;28;20041;-67
2023/08/01 00:36:38;;;;;;;17.92;7.55;;;15.20;99.90;;;;;;5034271;28;20055;-67
2023/08/01 00:39:04;;;;;;;18.70;7.25;;;15.20;99.90;;;;;;5042965;28;20481;-66
2023/08/01 00:41:29;;;;;;;20.27;6.85;;;15.90;99.90;;;;;;5059032;28;20391;-66
2023/08/01 00:43:55;;;;;;;20.33;7.18;;;15.60;99.90;;;;;;5056154;28;20044;-66
2023/08/01 00:46:20;;;;;;;20.25;7.82;;;15.70;99.90;;;;;;5036779;28;20038;-66
2023/08/01 00:48:46;;;;;;;23.63;7.88;;;15.40;99.90;;;;;;5031571;28;20044;-66
2023/08/01 00:51:12;;;;;;;19.77;8.60;;;15.20;99.90;;;;;;5030334;28;20373;-66
2023/08/01 00:53:39;;;;;;;20.55;8.60;;;15.20;99.90;;;;;;5041982;28;20098;-66
2023/08/01 00:56:04;;;;;;;27.17;8.68;;;15.30;99.90;;;;;;5045954;28;20048;-66
2023/08/01 00:58:30;;;;;;;18.92;8.55;;;15.40;99.90;;;;;;5045898;28;20036;-66
2023/08/01 01:00:56;;;;;;;29.15;9.90;;;15.70;99.90;;;;;;5038150;28;20503;-67
2023/08/01 01:03:23;;;;;;;21.35;9.07;;;15.20;99.90;;;;;;5031587;28;20045;-67
2023/08/01 01:06:07;;;;;;;20.83;9.57;;;15.70;99.90;;;;;;5030698;28;20128;-66
2023/08/01 01:08:33;;;;;;;26.30;9.75;;;15.90;99.90;;;;;;5042082;28;20460;-66
2023/08/01 01:10:59;;;;;;;18.23;9.18;;;15.50;99.90;;;;;;5028442;28;20040;-66
2023/08/01 01:13:24;;;;;;;22.17;8.57;;;15.70;99.90;;;;;;5036577;28;20079;-65
2023/08/01 01:15:50;;;;;;;15.13;4.88;;;16.00;99.90;;;;;;5039290;28;20049;-65
2023/08/01 01:18:15;;;;;;;13.50;4.32;;;15.80;99.90;;;;;;5034452;28;20040;-66
2023/08/01 01:20:41;;;;;;;9.95;3.90;;;15.10;99.90;;;;;;5027984;28;20385;-66
2023/08/01 01:23:09;;;;;;;7.28;3.50;;;15.00;99.90;;;;;;5038167;28;20095;-66
2023/08/01 01:25:36;;;;;;;9.35;3.92;;;15.40;99.90;;;;;;5026520;28;20045;-67
2023/08/01 01:28:04;;;;;;;10.77;3.63;;;14.30;99.90;;;;;;5047313;28;20041;-68
2023/08/01 01:30:33;;;;;;;8.20;3.08;;;14.80;99.90;;;;;;5032520;28;20048;-68
2023/08/01 01:32:59;;;;;;;11.75;3.72;;;14.70;99.90;;;;;;5027087;28;20087;-68
2023/08/01 01:35:25;;;;;;;8.50;3.65;;;14.40;99.90;;;;;;5031861;28;20073;-66
2023/08/01 01:37:50;;;;;;;11.63;3.90;;;14.80;99.90;;;;;;5012481;28;20061;-71
2023/08/01 01:40:16;;;;;;;9.32;3.70;;;14.20;99.90;;;;;;5041111;28;20033;-67
2023/08/01 01:42:41;;;;;;;8.45;3.25;;;14.50;99.90;;;;;;5045724;28;20033;-67
2023/08/01 01:45:07;;;;;;;8.32;3.83;;;15.30;99.90;;;;;;5044048;28;20048;-68
2023/08/01 01:47:33;;;;;;;11.93;3.80;;;14.40;99.90;;;;;;5031411;28;20052;-67
2023/08/01 01:49:58;;;;;;;8.48;3.38;;;14.30;99.90;;;;;;5027671;28;20141;-66
2023/08/01 01:52:24;;;;;;;11.30;4.00;;;15.30;99.90;;;;;;5027138;28;20112;-66
2023/08/01 01:54:49;;;;;;;9.60;3.03;;;14.30;99.90;;;;;;5034056;28;20037;-67
2023/08/01 01:57:15;;;;;;;11.23;3.22;;;14.30;99.90;;;;;;5042463;28;20046;-67
2023/08/01 01:59:40;;;;;;;9.52;3.55;;;15.00;99.90;;;;;;5033898;28;20044;-67
2023/08/01 02:02:06;;;;;;;9.18;3.85;;;14.70;99.90;;;;;;5042561;28;20043;-67
2023/08/01 02:04:32;;;;;;;13.40;3.70;;;14.90;99.90;;;;;;5043188;28;20337;-66
2023/08/01 02:06:57;;;;;;;12.75;4.05;;;14.70;99.90;;;;;;5045336;28;20128;-67
2023/08/01 02:09:23;;;;;;;11.15;3.40;;;14.50;99.90;;;;;;5032833;28;20183;-67
2023/08/01 02:11:48;;;;;;;8.32;3.45;;;14.60;99.90;;;;;;5043841;28;20064;-67
2023/08/01 02:14:14;;;;;;;10.23;3.58;;;15.00;99.90;;;;;;5042843;28;20050;-67
2023/08/01 02:16:39;;;;;;;8.80;3.35;;;14.30;99.90;;;;;;5029667;28;20033;-67
2023/08/01 02:19:05;;;;;;;9.60;3.55;;;14.70;99.90;;;;;;5035678;28;20374;-66
2023/08/01 02:21:31;;;;;;;9.95;3.17;;;15.10;99.90;;;;;;5043170;28;20025;-66
2023/08/01 02:23:56;;;;;;;10.70;4.28;;;14.70;99.90;;;;;;5046223;28;20048;-66
2023/08/01 02:26:23;;;;;;;7.97;3.08;;;14.60;99.90;;;;;;5030923;28;20048;-66
2023/08/01 02:28:49;;;;;;;11.82;4.05;;;14.20;99.90;;;;;;5034674;28;20041;-66
2023/08/01 02:31:16;;;;;;;7.80;4.03;;;14.40;99.90;;;;;;5039791;28;20140;-66
2023/08/01 02:33:41;;;;;;;10.50;3.80;;;14.90;99.90;;;;;;5042705;28;20045;-66
2023/08/01 02:36:07;;;;;;;10.82;4.97;;;14.70;99.90;;;;;;5030310;28;20362;-67
2023/08/01 02:38:32;;;;;;;71.43;7.32;;;14.70;99.90;;;;;;5041037;28;20144;-66
2023/08/01 02:40:58;;;;;;;11.98;4.88;;;14.40;99.90;;;;;;5025330;28;20050;-66
2023/08/01 02:43:24;;;;;;;14.52;5.38;;;14.30;99.90;;;;;;5026791;28;20041;-66
2023/08/01 02:45:49;;;;;;;15.25;5.95;;;14.30;99.90;;;;;;5039117;28;20033;-67
2023/08/01 02:48:15;;;;;;;13.43;5.65;;;13.90;99.90;;;;;;5045380;28;20037;-67
2023/08/01 02:50:41;;;;;;;15.52;5.80;;;13.70;99.90;;;;;;5033261;28;20510;-66
2023/08/01 02:53:06;;;;;;;12.02;5.72;;;13.70;99.90;;;;;;5036721;28;20108;-66
2023/08/01 02:55:32;;;;;;;12.80;5.72;;;14.10;99.90;;;;;;5042710;28;20334;-66
2023/08/01 02:57:57;;;;;;;15.77;6.22;;;14.40;99.90;;;;;;5051086;28;21897;-66
2023/08/01 03:00:23;;;;;;;18.42;5.68;;;14.00;99.90;;;;;;5043902;28;20118;-66
2023/08/01 03:02:48;;;;;;;25.90;6.40;;;14.10;99.90;;;;;;5039828;28;20037;-66
2023/08/01 03:05:14;;;;;;;13.98;6.00;;;14.60;99.90;;;;;;5031776;28;20049;-66
2023/08/01 03:07:40;;;;;;;13.88;6.22;;;14.00;99.90;;;;;;5054894;28;20048;-66
2023/08/01 03:10:06;;;;;;;23.58;6.90;;;14.50;99.90;;;;;;5051172;28;20052;-66
2023/08/01 03:12:32;;;;;;;14.95;5.60;;;14.60;99.90;;;;;;5046496;28;20049;-66
2023/08/01 03:14:58;;;;;;;16.80;5.95;;;14.00;99.90;;;;;;5040598;28;20370;-66
2023/08/01 03:17:24;;;;;;;16.52;6.20;;;14.40;99.90;;;;;;5041994;28;20131;-66
2023/08/01 03:19:49;;;;;;;24.02;7.53;;;14.40;99.90;;;;;;5032361;28;20049;-66
2023/08/01 03:22:15;;;;;;;18.98;6.90;;;14.70;99.90;;;;;;5035723;28;20536;-66
2023/08/01 03:24:41;;;;;;;15.60;6.80;;;14.80;99.90;;;;;;5037567;28;20129;-66
2023/08/01 03:27:06;;;;;;;19.65;6.57;;;14.20;99.90;;;;;;5046744;28;20068;-66
2023/08/01 03:29:32;;;;;;;15.18;6.88;;;14.60;99.90;;;;;;5035912;28;20037;-66
2023/08/01 03:31:58;;;;;;;27.75;9.52;;;15.00;99.90;;;;;;5028876;28;20037;-66
2023/08/01 03:34:23;;;;;;;19.08;7.72;;;15.10;99.90;;;;;;5041495;28;20515;-65
2023/08/01 03:36:50;;;;;;;28.17;8.20;;;15.00;99.90;;;;;;5039854;28;22393;-66
2023/08/01 03:39:15;;;;;;;26.30;9.20;;;14.60;99.90;;;;;;5033103;28;20107;-67
2023/08/01 03:41:41;;;;;;;26.27;8.55;;;15.00;99.90;;;;;;5034125;28;20053;-68
2023/08/01 03:44:06;;;;;;;21.55;8.32;;;14.60;99.90;;;;;;5032220;28;20388;-68
2023/08/01 03:46:32;;;;;;;20.88;8.23;;;15.20;99.90;;;;;;5050669;28;20047;-68
2023/08/01 03:48:57;;;;;;;23.35;7.90;;;14.80;99.90;;;;;;5048995;28;20048;-69
2023/08/01 03:51:23;;;;;;;16.73;7.45;;;14.40;99.90;;;;;;5056092;28;20508;-69
2023/08/01 03:53:49;;;;;;;16.85;6.32;;;15.20;99.90;;;;;;5032954;28;20354;-69
2023/08/01 03:56:15;;;;;;;17.98;6.57;;;14.60;99.90;;;;;;5040146;28;20037;-68
2023/08/01 03:58:40;;;;;;;13.68;5.25;;;14.40;99.90;;;;;;5050286;28;20120;-69
2023/08/01 04:01:06;;;;;;;13.23;4.85;;;14.60;99.90;;;;;;5043071;28;20025;-68
2023/08/01 04:03:32;;;;;;;9.98;4.15;;;14.70;99.90;;;;;;5031606;28;20053;-67
2023/08/01 04:05:58;;;;;;;8.50;3.65;;;14.30;99.90;;;;;;5027456;28;20037;-68
2023/08/01 04:08:23;;;;;;;10.25;3.58;;;15.10;99.90;;;;;;5029637;28;20063;-67
2023/08/01 04:10:50;;;;;;;9.45;3.75;;;14.30;99.90;;;;;;5048472;28;20029;-68
2023/08/01 04:13:15;;;;;;;9.73;3.15;;;15.00;99.90;;;;;;5038434;28;20084;-67
2023/08/01 04:15:41;;;;;;;9.00;3.40;;;14.60;99.90;;;;;;5047558;28;20041;-68
2023/08/01 04:18:06;;;;;;;6.00;2.75;;;14.20;99.90;;;;;;5027388;28;20053;-67
2023/08/01 04:20:32;;;;;;;12.35;3.03;;;14.20;99.90;;;;;;5037080;28;20635;-66
2023/08/01 04:22:57;;;;;;;6.60;3.00;;;14.40;99.90;;;;;;5044551;28;20081;-68
2023/08/01 04:25:24;;;;;;;9.18;2.58;;;14.60;99.90;;;;;;5051429;28;20079;-67
2023/08/01 04:27:50;;;;;;;7.53;2.92;;;14.80;99.90;;;;;;5050061;28;20445;-67
2023/08/01 04:30:16;;;;;;;9.73;2.50;;;14.70;99.90;;;;;;5034538;28;20178;-67
2023/08/01 04:32:41;;;;;;;10.23;2.50;;;14.10;99.90;;;;;;5058766;28;20040;-67
2023/08/01 04:35:07;;;;;;;6.40;2.30;;;14.30;99.90;;;;;;5048418;28;20045;-69
2023/08/01 04:37:33;;;;;;;6.40;2.60;;;14.70;99.90;;;;;;5047240;28;20044;-69
2023/08/01 04:39:58;;;;;;;8.32;2.17;;;14.80;99.90;;;;;;5046912;28;20071;-68
2023/08/01 04:42:24;;;;;;;5.28;1.83;;;14.60;99.90;;;;;;5029810;28;20041;-68
2023/08/01 04:44:49;;;;;;;5.40;1.88;;;14.80;99.90;;;;;;5032484;28;20617;-68
2023/08/01 04:47:15;;;;;;;7.88;2.20;;;14.70;99.90;;;;;;5046944;28;20051;-67
2023/08/01 04:49:41;;;;;;;5.72;2.03;;;14.70;99.90;;;;;;5028810;28;20033;-69
2023/08/01 04:52:07;;;;;;;7.57;2.05;;;14.50;99.90;;;;;;5058546;28;20041;-67
2023/08/01 04:54:32;;;;;;;5.35;1.90;;;14.60;99.90;;;;;;5035681;28;20033;-67
2023/08/01 04:56:58;;;;;;;7.38;1.98;;;14.40;99.90;;;;;;5043590;28;20041;-66
2023/08/01 04:59:23;;;;;;;5.97;1.70;;;14.40;99.90;;;;;;5037738;28;20498;-67
2023/08/01 05:01:49;;;;;;;5.50;1.88;;;14.20;99.90;;;;;;5053633;28;20440;-67
2023/08/01 05:04:15;;;;;;;5.68;1.98;;;14.10;99.90;;;;;;5041910;28;20037;-66
2023/08/01 05:06:40;;;;;;;3.35;1.77;;;14.30;99.90;;;;;;5035057;28;20339;-66
2023/08/01 05:09:06;;;;;;;4.28;1.60;;;14.50;99.90;;;;;;5042700;28;20045;-67
2023/08/01 05:11:32;;;;;;;6.65;1.85;;;14.50;99.90;;;;;;5034509;28;20124;-66
2023/08/01 05:13:58;;;;;;;5.53;1.85;;;14.60;99.90;;;;;;5035773;28;20076;-67
2023/08/01 05:16:23;;;;;;;7.63;1.80;;;14.20;99.90;;;;;;5032654;28;20129;-67
2023/08/01 05:18:49;;;;;;;6.07;1.67;;;14.00;99.90;;;;;;5032966;28;20033;-67
2023/08/01 05:21:14;;;;;;;3.75;1.50;;;14.70;99.90;;;;;;5035037;28;20032;-66
2023/08/01 05:23:40;;;;;;;3.42;1.73;;;14.70;99.90;;;;;;5034171;28;20029;-67
2023/08/01 05:26:05;;;;;;;6.07;2.00;;;14.10;99.90;;;;;;5040734;28;20036;-66
2023/08/01 05:28:31;;;;;;;3.22;1.42;;;14.40;99.90;;;;;;5055901;28;20087;-66
2023/08/01 05:30:56;;;;;;;5.45;1.60;;;14.30;99.90;;;;;;5032990;28;20038;-66
2023/08/01 05:33:22;;;;;;;5.28;1.55;;;14.30;99.90;;;;;;5030769;28;20171;-67
2023/08/01 05:35:49;;;;;;;3.50;1.42;;;14.30;99.90;;;;;;5027246;28;20049;-66
2023/08/01 05:38:14;;;;;;;5.30;1.60;;;14.20;99.90;;;;;;5031050;28;20071;-66
2023/08/01 05:40:40;;;;;;;4.78;1.73;;;14.50;99.90;;;;;;5041838;28;20337;-71
2023/08/01 05:43:08;;;;;;;7.07;1.80;;;14.40;99.90;;;;;;5035260;28;20092;-66
2023/08/01 05:45:34;;;;;;;6.40;1.42;;;14.50;99.90;;;;;;5032808;28;20139;-66
2023/08/01 05:48:00;;;;;;;5.15;2.00;;;14.60;99.90;;;;;;5034763;28;20408;-66
2023/08/01 05:50:26;;;;;;;5.28;1.65;;;14.50;99.90;;;;;;5039825;28;20057;-66
2023/08/01 05:52:51;;;;;;;6.30;1.83;;;15.10;99.90;;;;;;5036024;28;20352;-66
2023/08/01 05:55:18;;;;;;;5.88;1.70;;;15.00;99.90;;;;;;5039610;28;20067;-66
2023/08/01 05:57:43;;;;;;;7.03;2.05;;;15.10;99.90;;;;;;5046745;28;20040;-66
2023/08/01 06:00:10;;;;;;;7.25;1.70;;;15.30;99.90;;;;;;5042296;28;20432;-67
2023/08/01 06:02:35;;;;;;;4.53;1.80;;;15.40;99.90;;;;;;5037486;28;20118;-67
2023/08/01 06:05:01;;;;;;;5.38;1.85;;;14.80;99.90;;;;;;5030636;28;20045;-65
2023/08/01 06:07:26;;;;;;;6.53;1.90;;;15.10;99.90;;;;;;5031897;28;20040;-66
2023/08/01 06:09:52;;;;;;;4.85;2.03;;;14.80;99.90;;;;;;5035524;28;20045;-67
2023/08/01 06:12:18;;;;;;;6.40;2.15;;;14.70;99.90;;;;;;5029484;28;20535;-66
2023/08/01 06:14:44;;;;;;;7.13;1.90;;;14.90;99.90;;;;;;5035546;28;20048;-66
2023/08/01 06:17:10;;;;;;;6.60;2.40;;;14.70;99.90;;;;;;5045122;28;20441;-66
2023/08/01 06:19:35;;;;;;;3.03;1.70;;;14.90;99.90;;;;;;5041022;28;20396;-66
2023/08/01 06:22:01;;;;;;;3.40;1.60;;;15.40;99.90;;;;;;5046891;28;20068;-66
2023/08/01 06:24:26;;;;;;;5.03;1.85;;;15.10;99.90;;;;;;5031413;28;20832;-66
2023/08/01 06:26:52;;;;;;;5.93;2.05;;;15.80;99.90;;;;;;5042295;28;20198;-66
2023/08/01 06:29:17;;;;;;;3.88;2.08;;;15.90;99.90;;;;;;5035172;28;20429;-66
2023/08/01 06:31:43;;;;;;;7.18;2.05;;;15.70;99.90;;;;;;5038488;28;20473;-66
2023/08/01 06:34:09;;;;;;;4.97;1.92;;;15.30;99.90;;;;;;5044689;28;20116;-67
2023/08/01 06:36:35;;;;;;;4.75;1.80;;;15.40;99.90;;;;;;5043014;28;20033;-66
2023/08/01 06:39:00;;;;;;;4.85;1.98;;;15.50;99.90;;;;;;5042293;28;20519;-66
2023/08/01 06:41:26;;;;;;;5.05;2.20;;;15.50;99.90;;;;;;5039669;28;20477;-66
2023/08/01 06:43:51;;;;;;;3.42;1.67;;;15.90;99.90;;;;;;5025826;28;20052;-66
2023/08/01 06:46:17;;;;;;;6.00;2.30;;;15.30;99.90;;;;;;5031775;28;20120;-67
2023/08/01 06:48:42;;;;;;;4.13;2.20;;;15.50;99.90;;;;;;5047132;28;20045;-67
2023/08/01 06:51:08;;;;;;;5.60;1.80;;;15.40;99.90;;;;;;5038345;28;20052;-67
2023/08/01 06:53:33;;;;;;;5.15;2.10;;;15.60;99.90;;;;;;5037156;28;20060;-67
2023/08/01 06:55:59;;;;;;;5.10;1.77;;;15.50;99.90;;;;;;5042426;28;20037;-66
2023/08/01 06:58:25;;;;;;;4.68;1.75;;;15.50;99.90;;;;;;5026436;28;20560;-66
2023/08/01 07:00:50;;;;;;;5.00;2.10;;;15.20;99.90;;;;;;5025718;28;20148;-66
2023/08/01 07:03:16;;;;;;;7.00;2.42;;;15.30;99.90;;;;;;5025247;28;20038;-66
2023/08/01 07:05:42;;;;;;;5.95;2.03;;;15.40;99.90;;;;;;5058108;28;20103;-67
2023/08/01 07:08:07;;;;;;;3.30;1.80;;;15.60;99.90;;;;;;5057259;28;20068;-67
2023/08/01 07:10:36;;;;;;;5.72;2.28;;;15.30;99.90;;;;;;5042912;28;20079;-66
2023/08/01 07:13:04;;;;;;;5.53;1.85;;;15.70;99.90;;;;;;5037647;28;20132;-66
2023/08/01 07:15:31;;;;;;;4.30;1.73;;;15.50;99.90;;;;;;5027417;28;20057;-67
2023/08/01 07:17:56;;;;;;;3.75;1.77;;;15.80;99.90;;;;;;5009998;28;20069;-66
2023/08/01 07:20:22;;;;;;;3.40;1.55;;;15.50;99.90;;;;;;5037905;28;20064;-66
2023/08/01 07:22:48;;;;;;;5.30;2.25;;;15.70;99.90;;;;;;5038510;28;20080;-66
2023/08/01 07:25:13;;;;;;;4.07;1.70;;;16.00;99.90;;;;;;5023587;28;20049;-65
2023/08/01 07:27:39;;;;;;;7.43;1.60;;;16.30;99.90;;;;;;5015568;28;20056;-66
2023/08/01 07:30:06;;;;;;;3.35;1.75;;;16.50;99.90;;;;;;5026412;28;20097;-66
2023/08/01 07:32:31;;;;;;;4.72;1.75;;;16.10;99.90;;;;;;5021787;28;20044;-66
2023/08/01 07:34:57;;;;;;;4.28;1.52;;;16.20;99.90;;;;;;5037919;28;20033;-66
2023/08/01 07:37:22;;;;;;;4.18;1.48;;;16.30;99.90;;;;;;5031441;28;20535;-66
2023/08/01 07:39:50;;;;;;;5.30;1.75;;;16.00;99.90;;;;;;5025309;28;20078;-66
2023/08/01 07:42:15;;;;;;;3.53;1.60;;;16.00;99.90;;;;;;5033901;28;20044;-67
2023/08/01 07:44:41;;;;;;;4.93;1.50;;;16.00;99.90;;;;;;5034129;28;20037;-67
2023/08/01 07:47:06;;;;;;;5.13;1.42;;;15.80;99.90;;;;;;5021879;28;20546;-66
2023/08/01 07:49:32;;;;;;;4.65;1.77;;;15.90;99.90;;;;;;5029103;28;20469;-67
2023/08/01 07:51:57;;;;;;;6.95;1.55;;;15.80;99.90;;;;;;5031568;28;20072;-67
2023/08/01 07:54:24;;;;;;;5.28;1.65;;;15.90;99.90;;;;;;5048813;28;20060;-67
2023/08/01 07:56:49;;;;;;;3.38;1.23;;;15.90;99.90;;;;;;5036238;28;20120;-66
2023/08/01 07:59:15;;;;;;;3.53;1.42;;;15.70;99.90;;;;;;5064269;28;20778;-66
2023/08/01 08:01:41;;;;;;;3.17;1.40;;;15.70;99.90;;;;;;5047565;28;20075;-67
2023/08/01 08:04:07;;;;;;;5.07;1.27;;;15.80;99.90;;;;;;5048283;28;20052;-66
2023/08/01 08:06:33;;;;;;;6.60;1.40;;;15.70;99.90;;;;;;5025002;28;20041;-68
2023/08/01 08:08:58;;;;;;;3.50;1.27;;;15.60;99.90;;;;;;5043342;28;20049;-67
2023/08/01 08:11:24;;;;;;;3.25;1.42;;;15.60;99.90;;;;;;5047760;28;20033;-67
2023/08/01 08:13:49;;;;;;;4.05;1.65;;;15.70;99.90;;;;;;5043757;28;20059;-67
2023/08/01 08:16:15;;;;;;;4.32;1.98;;;15.70;99.90;;;;;;5040666;28;20083;-67
2023/08/01 08:18:41;;;;;;;4.32;1.45;;;15.90;99.90;;;;;;5037542;28;20033;-67
2023/08/01 08:21:07;;;;;;;5.28;1.75;;;16.00;99.90;;;;;;5027038;28;20033;-67
2023/08/01 08:23:32;;;;;;;5.57;1.85;;;16.20;99.90;;;;;;5032887;28;20465;-69
2023/08/01 08:25:58;;;;;;;3.88;1.42;;;16.10;99.90;;;;;;5019468;28;20065;-68
2023/08/01 08:28:29;;;;;;;4.43;1.70;;;16.10;99.90;;;;;;5028008;28;20457;-68
2023/08/01 08:30:55;;;;;;;3.38;1.50;;;16.10;99.90;;;;;;5027389;28;20200;-68
2023/08/01 08:33:21;;;;;;;8.25;1.45;;;15.80;99.90;;;;;;5050815;28;20116;-67
2023/08/01 08:35:47;;;;;;;5.35;1.55;;;15.70;99.90;;;;;;5033555;28;20045;-67
2023/08/01 08:38:12;;;;;;;5.68;1.50;;;15.80;99.90;;;;;;5035928;28;20037;-68
2023/08/01 08:40:43;;;;;;;4.95;1.73;;;15.50;99.90;;;;;;5039165;28;20041;-68
2023/08/01 08:43:09;;;;;;;3.33;1.30;;;15.50;99.90;;;;;;5065216;28;20037;-68
2023/08/01 08:45:39;;;;;;;3.67;1.52;;;15.40;99.90;;;;;;5047101;28;20477;-69
2023/08/01 08:48:12;;;;;;;4.53;1.30;;;15.30;99.90;;;;;;5030075;28;20385;-70
2023/08/01 08:50:38;;;;;;;2.65;1.30;;;15.40;99.90;;;;;;5020704;28;20057;-68
2023/08/01 08:53:05;;;;;;;3.05;1.30;;;15.30;99.90;;;;;;5036002;28;20540;-69
2023/08/01 08:55:31;;;;;;;3.63;1.38;;;15.50;99.90;;;;;;5062321;28;20049;-69
2023/08/01 08:57:59;;;;;;;5.30;1.30;;;15.40;99.90;;;;;;5049095;28;20404;-69
2023/08/01 09:00:27;;;;;;;3.67;1.38;;;15.30;99.90;;;;;;5040585;28;20037;-68
2023/08/01 09:02:53;;;;;;;2.83;1.50;;;15.40;99.90;;;;;;5049627;28;20071;-68
2023/08/01 09:05:20;;;;;;;2.97;1.55;;;15.60;99.90;;;;;;5051059;28;20529;-69
2023/08/01 09:07:49;;;;;;;6.78;1.77;;;15.60;99.90;;;;;;5037183;28;20045;-69
2023/08/01 09:10:15;;;;;;;8.18;2.10;;;15.70;99.90;;;;;;5028718;28;20049;-70
2023/08/01 09:12:41;;;;;;;4.22;1.50;;;15.80;99.90;;;;;;5016561;28;20048;-70
2023/08/01 09:15:07;;;;;;;3.78;1.50;;;16.00;99.90;;;;;;5044234;28;20137;-71
2023/08/01 09:17:32;;;;;;;3.33;1.60;;;15.80;99.90;;;;;;5035096;28;20076;-70
2023/08/01 09:20:08;;;;;;;3.40;1.70;;;15.80;99.90;;;;;;5027165;28;20564;-69
2023/08/01 09:22:44;;;;;;;3.17;1.70;;;16.20;99.90;;;;;;5029534;28;20095;-69
2023/08/01 09:25:11;;;;;;;2.53;1.35;;;16.30;99.90;;;;;;5039701;28;20041;-68
2023/08/01 09:27:36;;;;;;;3.78;1.42;;;16.20;99.90;;;;;;5046916;28;20048;-70
2023/08/01 09:30:13;;;;;;;5.93;1.40;;;16.30;99.90;;;;;;5013352;28;20041;-69
2023/08/01 09:32:39;;;;;;;3.60;1.45;;;16.10;99.90;;;;;;5029080;28;20099;-71
2023/08/01 09:35:05;;;;;;;5.28;2.45;;;15.90;99.90;;;;;;5050265;28;20136;-70
2023/08/01 09:37:39;;;;;;;2.65;1.60;;;16.00;99.90;;;;;;5044598;28;20040;-70
2023/08/01 09:40:05;;;;;;;1.92;1.10;;;15.90;99.90;;;;;;5039005;28;20121;-70
2023/08/01 09:42:39;;;;;;;3.92;1.50;;;15.70;99.90;;;;;;5016098;28;20037;-71
2023/08/01 09:45:23;;;;;;;3.08;1.77;;;16.30;99.90;;;;;;5064088;28;20044;-71
2023/08/01 09:47:49;;;;;;;2.80;1.33;;;16.40;99.90;;;;;;5053571;28;20178;-69
2023/08/01 09:50:21;;;;;;;4.38;1.60;;;16.50;99.90;;;;;;5026725;28;20085;-69
2023/08/01 09:52:52;;;;;;;4.18;1.83;;;16.40;99.90;;;;;;5044657;28;20049;-75
2023/08/01 09:55:21;;;;;;;5.63;2.20;;;16.40;99.90;;;;;;5038118;28;20190;-70
2023/08/01 09:57:50;;;;;;;4.82;2.03;;;16.20;99.90;;;;;;5045796;28;20369;-71
2023/08/01 10:00:16;;;;;;;9.38;2.45;;;16.50;99.90;;;;;;5034022;28;20049;-71
2023/08/01 10:02:43;;;;;;;6.55;2.20;;;17.20;99.90;;;;;;5024536;28;20037;-71
2023/08/01 10:05:10;;;;;;;5.25;2.08;;;17.40;99.90;;;;;;5021324;28;20041;-71
2023/08/01 10:07:40;;;;;;;3.33;1.92;;;17.20;99.90;;;;;;5046827;28;20473;-70
2023/08/01 10:10:06;;;;;;;3.80;1.80;;;17.10;99.90;;;;;;5020788;28;20052;-72
2023/08/01 10:12:33;;;;;;;6.80;2.03;;;16.90;99.90;;;;;;5024442;28;20406;-71
2023/08/01 10:14:59;;;;;;;5.07;2.10;;;16.60;99.90;;;;;;5038479;28;20033;-75
2023/08/01 10:17:26;;;;;;;3.65;1.80;;;16.50;99.90;;;;;;5032792;28;20102;-72
2023/08/01 10:19:53;;;;;;;5.68;2.40;;;16.40;99.90;;;;;;5042873;28;20377;-72
2023/08/01 10:22:22;;;;;;;;;;;17.30;99.90;;;;;;5027527;28;20041;-71
2023/08/01 10:24:48;;;;;;;3.95;2.35;;;17.50;99.90;;;;;;5039491;28;20238;-71
2023/08/01 10:27:18;;;;;;;3.08;1.77;;;17.40;99.90;;;;;;5037176;28;20045;-71
2023/08/01 10:29:44;;;;;;;4.68;1.67;;;17.10;99.90;;;;;;5019937;28;20045;-71
2023/08/01 10:32:10;;;;;;;8.50;1.60;;;17.00;99.90;;;;;;5047007;28;20052;-73
2023/08/01 10:34:36;;;;;;;3.22;1.58;;;17.20;99.90;;;;;;5061279;28;20051;-71
2023/08/01 10:37:01;;;;;;;5.18;1.67;;;17.10;99.90;;;;;;5025348;28;20267;-71
2023/08/01 10:39:28;;;;;;;3.72;1.40;;;17.30;99.90;;;;;;5050070;28;20033;-71
2023/08/01 10:42:02;;;;;;;2.85;1.48;;;17.10;99.90;;;;;;5020156;28;20124;-69
2023/08/01 10:44:30;;;;;;;4.80;1.30;;;17.00;99.90;;;;;;5027246;28;20132;-71
2023/08/01 10:47:03;;;;;;;5.40;1.60;;;16.70;99.90;;;;;;5046088;28;20063;-70
2023/08/01 10:49:55;;;;;;;4.35;1.70;;;16.90;99.90;;;;;;5022585;28;20052;-70
2023/08/01 10:52:29;;;;;;;3.97;1.23;;;17.20;99.90;;;;;;5034209;28;20044;-69
2023/08/01 10:55:05;;;;;;;6.63;1.60;;;17.10;99.90;;;;;;5033586;28;20083;-70
2023/08/01 10:57:38;;;;;;;4.60;1.42;;;16.80;99.90;;;;;;5053676;28;20043;-68
2023/08/01 11:00:09;;;;;;;2.05;1.20;;;16.70;99.90;;;;;;5056000;28;20084;-69
2023/08/01 11:02:35;;;;;;;;;;;16.70;99.90;;;;;;5036451;28;20053;-68
2023/08/01 11:05:06;;;;;;;2.92;1.30;;;17.00;99.90;;;;;;5037377;28;19974;-67
2023/08/01 11:07:32;;;;;;;2.25;1.27;;;16.80;99.90;;;;;;5048127;28;20045;-68
2023/08/01 11:10:09;;;;;;;4.00;1.20;;;16.70;99.90;;;;;;5035437;28;20047;-68
2023/08/01 11:12:42;;;;;;;3.70;1.50;;;16.60;99.90;;;;;;5037586;28;20124;-68
2023/08/01 11:15:10;;;;;;;3.78;1.42;;;16.70;99.90;;;;;;5028395;28;20048;-68
2023/08/01 11:17:37;;;;;;;2.50;1.80;;;16.90;99.90;;;;;;5039395;28;20048;-68
2023/08/01 11:20:08;;;;;;;6.13;1.83;;;17.10;99.90;;;;;;5033967;28;20388;-67
2023/08/01 11:22:38;;;;;;;6.55;1.80;;;17.20;99.90;;;;;;5033972;28;20064;-67
2023/08/01 11:25:05;;;;;;;4.53;1.80;;;17.40;99.90;;;;;;5048991;28;20053;-68
2023/08/01 11:27:30;;;;;;;6.43;2.08;;;17.50;99.90;;;;;;5040862;28;20049;-67
2023/08/01 11:29:56;;;;;;;9.38;1.73;;;17.60;99.90;;;;;;5034261;28;20047;-67
2023/08/01 11:32:32;;;;;;;5.55;1.90;;;17.60;99.90;;;;;;5044128;28;20130;-68
2023/08/01 11:34:57;;;;;;;5.70;1.90;;;17.60;99.90;;;;;;5029684;28;20052;-68
2023/08/01 11:37:26;;;;;;;5.85;2.03;;;17.30;99.90;;;;;;5033754;28;20033;-69
2023/08/01 11:39:52;;;;;;;5.28;1.85;;;17.20;99.90;;;;;;5061453;28;20430;-68
2023/08/01 11:42:18;;;;;;;5.43;2.05;;;17.20;99.90;;;;;;5042520;28;20072;-67
2023/08/01 11:44:44;;;;;;;3.88;1.42;;;17.20;99.90;;;;;;5038859;28;20037;-67
2023/08/01 11:47:14;;;;;;;4.60;1.60;;;17.00;99.90;;;;;;5035287;28;20053;-68
2023/08/01 11:49:48;;;;;;;4.13;1.58;;;17.20;99.90;;;;;;5026978;28;20041;-68
2023/08/01 11:52:34;;;;;;;6.50;1.60;;;17.40;99.90;;;;;;5033361;28;20053;-68
2023/08/01 11:54:59;;;;;;;4.25;1.40;;;17.50;99.90;;;;;;5034861;28;20132;-69
2023/08/01 11:57:25;;;;;;;10.38;2.00;;;17.60;99.90;;;;;;5036796;28;20432;-69
2023/08/01 11:59:53;;;;;;;4.32;1.17;;;17.70;99.90;;;;;;5042919;28;20322;-68
2023/08/01 12:02:32;;;;;;;5.80;1.40;;;17.50;99.90;;;;;;5040809;28;20041;-70
2023/08/01 12:04:58;;;;;;;5.55;1.77;;;17.20;99.90;;;;;;5048516;28;20416;-67
2023/08/01 12:07:29;;;;;;;4.75;1.35;;;17.10;99.90;;;;;;5040277;28;20073;-69
2023/08/01 12:09:58;;;;;;;5.40;1.45;;;17.00;99.90;;;;;;5039169;28;20045;-69
2023/08/01 12:12:26;;;;;;;4.57;1.60;;;17.10;99.90;;;;;;5044708;28;20045;-69
2023/08/01 12:14:52;;;;;;;5.88;1.58;;;17.10;99.90;;;;;;5028645;28;20116;-69
2023/08/01 12:17:18;;;;;;;8.77;2.00;;;17.10;99.90;;;;;;5034254;28;20037;-68
2023/08/01 12:19:44;;;;;;;5.93;1.60;;;17.00;99.90;;;;;;5032766;28;20507;-71
2023/08/01 12:22:09;;;;;;;5.90;1.73;;;16.70;99.90;;;;;;5041538;28;20048;-68
2023/08/01 12:24:37;;;;;;;3.83;1.40;;;16.70;99.90;;;;;;5049369;28;20037;-71
2023/08/01 12:27:07;;;;;;;6.68;1.45;;;17.00;99.90;;;;;;5046960;28;20128;-71
2023/08/01 12:29:33;;;;;;;3.55;1.30;;;17.30;99.90;;;;;;5025917;28;20043;-70
2023/08/01 12:31:59;;;;;;;3.78;1.55;;;17.50;99.90;;;;;;5039346;28;20120;-72
2023/08/01 12:34:24;;;;;;;4.43;1.45;;;17.90;99.90;;;;;;5065699;28;20487;-71
2023/08/01 12:36:50;;;;;;;4.25;1.33;;;18.00;99.90;;;;;;5049907;28;20124;-70
2023/08/01 12:39:15;;;;;;;5.32;1.60;;;18.20;99.90;;;;;;5046881;28;20064;-71
2023/08/01 12:41:41;;;;;;;6.72;2.15;;;18.80;99.90;;;;;;5055814;28;20052;-71